Time;durP1;ratioP1;P1;durP2;ratioP2;P2;SDS_P1;SDS_P2;PMS_P1;PMS_P2;Temp;Humidity;BMP_temperature;BMP_pressure;BME280_temperature;BME280_humidity;BME280_pressure;Samples;Min_cycle;Max_cycle;Signal;HPM_P1;HPM_P2
2022/12/16 00:00:27;;;;;;;26.57;9.68;;;;;;;7.37;78.83;101238.78;1869789;77;21502;-56
2022/12/16 00:02:57;;;;;;;31.23;10.95;;;;;;;7.40;78.86;101249.22;1872733;75;21137;-54
2022/12/16 00:05:28;;;;;;;29.05;12.47;;;;;;;7.41;78.88;101252.70;1895521;75;21014;-57
2022/12/16 00:07:57;;;;;;;37.93;12.60;;;;;;;7.42;78.98;101255.75;1880742;76;21082;-58
2022/12/16 00:10:25;;;;;;;30.00;12.55;;;;;;;7.44;79.01;101264.45;1872212;76;21083;-58
2022/12/16 00:12:54;;;;;;;27.40;12.55;;;;;;;7.46;79.10;101262.66;1867494;76;21087;-56
2022/12/16 00:15:23;;;;;;;36.00;12.65;;;;;;;7.48;79.19;101261.72;1862571;77;21183;-57
2022/12/16 00:17:51;;;;;;;30.97;11.63;;;;;;;7.51;79.34;101256.89;1862847;77;21443;-57
2022/12/16 00:20:20;;;;;;;28.62;11.48;;;;;;;7.53;79.43;101265.13;1861880;77;21264;-60
2022/12/16 00:22:49;;;;;;;24.85;10.13;;;;;;;7.57;79.45;101265.09;1868967;76;21126;-53
2022/12/16 00:25:18;;;;;;;35.50;12.73;;;;;;;7.64;79.53;101266.71;1873204;76;21141;-54
2022/12/16 00:27:46;;;;;;;30.68;11.57;;;;;;;7.68;79.64;101263.13;1858961;76;21152;-55
2022/12/16 00:30:15;;;;;;;28.45;11.05;;;;;;;7.73;79.74;101267.39;1867815;76;21138;-58
2022/12/16 00:32:44;;;;;;;31.73;11.03;;;;;;;7.78;79.84;101274.30;1875448;75;21118;-57
2022/12/16 00:35:12;;;;;;;26.80;11.60;;;;;;;7.82;79.98;101265.48;1854386;77;21923;-57
2022/12/16 00:37:41;;;;;;;21.30;9.50;;;;;;;7.84;79.95;101275.06;1859862;76;21039;-59
2022/12/16 00:40:11;;;;;;;19.17;7.70;;;;;;;7.87;80.05;101275.44;1863025;77;21122;-57
2022/12/16 00:42:40;;;;;;;21.05;9.38;;;;;;;7.90;80.21;101274.93;1843887;77;21039;-57
2022/12/16 00:45:09;;;;;;;16.27;7.15;;;;;;;7.92;80.21;101276.22;1862097;77;21250;-56
2022/12/16 00:47:38;;;;;;;21.15;7.17;;;;;;;7.99;80.29;101271.73;1863139;77;21045;-57
2022/12/16 00:50:08;;;;;;;21.85;9.33;;;;;;;8.10;80.52;101279.79;1871304;76;21181;-57
2022/12/16 00:52:37;;;;;;;20.25;8.05;;;;;;;8.14;80.53;101274.49;1862537;77;21117;-57
2022/12/16 00:55:07;;;;;;;20.25;8.95;;;;;;;8.12;80.37;101276.68;1832316;78;21529;-58
2022/12/16 00:57:35;;;;;;;43.15;13.40;;;;;;;8.13;80.35;101273.60;1843543;77;21051;-57
2022/12/16 01:00:05;;;;;;;63.40;21.52;;;;;;;8.10;80.27;101277.16;1862172;77;21185;-57
2022/12/16 01:02:34;;;;;;;84.70;30.97;;;;;;;8.04;80.27;101276.41;1862729;77;21051;-56
2022/12/16 01:05:03;;;;;;;64.40;25.62;;;;;;;7.98;80.28;101287.89;1863157;77;21098;-59
2022/12/16 01:07:31;;;;;;;67.80;26.90;;;;;;;7.97;80.40;101291.42;1863266;77;21145;-59
2022/12/16 01:10:00;;;;;;;62.83;25.00;;;;;;;7.92;80.44;101295.88;1865882;76;21134;-58
2022/12/16 01:12:29;;;;;;;67.45;24.67;;;;;;;7.88;80.69;101302.09;1889653;76;21159;-60
2022/12/16 01:14:58;;;;;;;59.42;21.10;;;;;;;7.88;80.83;101304.70;1890502;75;21498;-60
2022/12/16 01:17:28;;;;;;;56.37;22.13;;;;;;;7.91;80.82;101303.31;1890912;76;21147;-63
2022/12/16 01:19:57;;;;;;;60.83;23.02;;;;;;;7.93;80.74;101308.11;1890346;76;21137;-61
2022/12/16 01:22:25;;;;;;;59.77;22.32;;;;;;;7.94;80.78;101304.58;1890025;76;21006;-60
2022/12/16 01:24:54;;;;;;;53.17;20.97;;;;;;;7.94;80.72;101300.65;1890622;76;21065;-60
2022/12/16 01:27:23;;;;;;;52.08;18.52;;;;;;;7.95;80.72;101301.50;1890441;76;21203;-62
2022/12/16 01:29:51;;;;;;;48.33;18.02;;;;;;;7.95;80.80;101309.38;1889435;76;21014;-61
2022/12/16 01:32:20;;;;;;;42.80;15.08;;;;;;;7.95;81.00;101310.26;1890326;76;21071;-67
2022/12/16 01:34:54;;;;;;;31.68;15.28;;;;;;;7.96;81.10;101313.28;1889669;76;21111;-61
2022/12/16 01:37:23;;;;;;;41.77;14.30;;;;;;;7.98;81.20;101318.05;1890313;76;21117;-60
2022/12/16 01:39:52;;;;;;;45.17;15.55;;;;;;;7.99;81.22;101313.23;1890725;75;21167;-57
2022/12/16 01:42:22;;;;;;;35.92;14.78;;;;;;;8.04;81.25;101311.39;1890771;76;21050;-58
2022/12/16 01:44:53;;;;;;;45.40;14.38;;;;;;;8.08;81.17;101322.69;1890274;76;21121;-57
2022/12/16 01:47:30;;;;;;;38.38;15.28;;;;;;;8.22;81.94;101325.03;1889276;76;21078;-59
2022/12/16 01:50:04;;;;;;;34.95;14.58;;;;;;;8.25;81.59;101332.84;1884125;76;21027;-60
2022/12/16 01:52:39;;;;;;;36.08;11.75;;;;;;;8.34;81.60;101337.91;1890711;76;21195;-58
2022/12/16 01:55:11;;;;;;;28.62;9.60;;;;;;;8.47;81.84;101339.41;1890721;76;21046;-57
2022/12/16 01:57:51;;;;;;;21.52;9.75;;;;;;;8.62;82.13;101339.53;1888538;75;21074;-64
2022/12/16 02:00:20;;;;;;;30.45;11.10;;;;;;;8.76;82.52;101345.82;1890779;76;21022;-61
2022/12/16 02:02:51;;;;;;;35.45;11.20;;;;;;;8.85;82.34;101350.87;1889882;76;21130;-61
2022/12/16 02:05:20;;;;;;;25.72;10.88;;;;;;;8.89;82.24;101353.84;1890317;76;21142;-58
2022/12/16 02:08:16;;;;;;;19.75;8.70;;;;;;;8.94;82.21;101353.72;1885511;76;21066;-57
2022/12/16 02:11:02;;;;;;;16.52;7.15;;;;;;;9.00;82.21;101355.34;1888767;76;21468;-62
2022/12/16 02:14:03;;;;;;;17.57;7.35;;;;;;;9.05;82.20;101362.67;1890165;76;21074;-56
2022/12/16 02:16:47;;;;;;;17.85;7.28;;;;;;;9.12;82.19;101368.66;1880225;76;21090;-58
2022/12/16 02:19:50;;;;;;;21.73;8.50;;;;;;;9.21;82.32;101376.34;1890148;76;21042;-58
2022/12/16 02:22:40;;;;;;;17.90;6.70;;;;;;;9.28;82.34;101370.04;1890242;76;21433;-55
2022/12/16 02:25:17;;;;;;;15.95;6.62;;;;;;;9.33;82.57;101371.23;1888856;75;21054;-57
2022/12/16 02:28:06;;;;;;;13.15;5.80;;;;;;;9.38;82.46;101371.98;1889653;76;21117;-57
2022/12/16 02:30:47;;;;;;;12.58;5.12;;;;;;;9.41;82.57;101376.72;1858779;77;21131;-58
2022/12/16 02:33:33;;;;;;;15.55;6.85;;;;;;;9.46;82.60;101384.48;1864673;76;21132;-49
2022/12/16 02:36:23;;;;;;;13.13;5.80;;;;;;;9.48;82.60;101381.39;1889715;76;21156;-59
2022/12/16 02:39:14;;;;;;;12.28;5.75;;;;;;;9.50;82.56;101389.22;1890406;76;21543;-59
2022/12/16 02:41:52;;;;;;;15.83;5.67;;;;;;;9.52;82.53;101398.81;1887635;76;21141;-58
2022/12/16 02:44:23;;;;;;;14.47;6.30;;;;;;;9.55;82.51;101397.41;1889365;76;21018;-59
2022/12/16 02:46:55;;;;;;;12.13;5.97;;;;;;;9.59;82.83;101395.56;1889385;76;21611;-58
2022/12/16 02:49:27;;;;;;;12.93;5.35;;;;;;;9.64;82.84;101400.27;1890288;76;21699;-58
2022/12/16 02:51:59;;;;;;;12.75;5.65;;;;;;;9.65;82.79;101409.90;1888243;76;21094;-58
2022/12/16 02:54:29;;;;;;;24.90;8.85;;;;;;;9.68;82.82;101411.12;1890559;76;21125;-56
2022/12/16 02:57:03;;;;;;;24.70;8.08;;;;;;;9.72;82.75;101422.43;1890144;76;21630;-57
2022/12/16 02:59:47;;;;;;;24.12;8.83;;;;;;;9.73;82.79;101416.28;1889275;76;21161;-57
2022/12/16 03:02:24;;;;;;;39.92;12.45;;;;;;;9.77;82.89;101432.39;1890573;76;21054;-58
2022/12/16 03:05:04;;;;;;;34.50;13.93;;;;;;;9.78;83.09;101427.55;1887526;76;21513;-58
2022/12/16 03:07:36;;;;;;;41.90;12.70;;;;;;;9.83;83.08;101438.38;1888948;76;21047;-57
2022/12/16 03:10:10;;;;;;;51.20;14.78;;;;;;;9.86;83.11;101442.69;1890349;76;21026;-58
2022/12/16 03:12:42;;;;;;;19.35;8.15;;;;;;;9.86;83.14;101449.26;1886772;76;21113;-57
2022/12/16 03:15:16;;;;;;;21.02;7.50;;;;;;;9.86;83.13;101450.58;1887269;76;21042;-57
2022/12/16 03:17:48;;;;;;;18.05;6.17;;;;;;;9.85;83.18;101452.81;1886896;76;21104;-59
2022/12/16 03:20:23;;;;;;;13.13;5.30;;;;;;;9.89;83.25;101458.41;1886633;76;21071;-58
2022/12/16 03:22:54;;;;;;;14.47;6.72;;;;;;;9.91;83.22;101465.80;1887169;76;21685;-58
2022/12/16 03:25:25;;;;;;;14.58;5.90;;;;;;;9.95;83.27;101471.39;1887032;76;21022;-58
2022/12/16 03:28:19;;;;;;;14.58;5.80;;;;;;;9.95;83.31;101467.45;1887818;76;21116;-58
2022/12/16 03:30:49;;;;;;;;;;;;;;;9.96;83.27;101466.56;1890553;76;21132;-57
2022/12/16 03:33:20;;;;;;;11.80;5.15;;;;;;;9.96;83.10;101464.36;1887675;76;20120;-57
2022/12/16 03:35:52;;;;;;;11.73;4.90;;;;;;;9.95;82.97;101456.92;1887471;76;21015;-58
2022/12/16 03:38:21;;;;;;;13.22;5.37;;;;;;;9.95;82.92;101458.23;1887721;76;21434;-59
2022/12/16 03:40:52;;;;;;;20.40;6.42;;;;;;;9.94;82.90;101455.21;1887704;76;21894;-58
2022/12/16 03:43:23;;;;;;;13.15;5.47;;;;;;;9.93;82.89;101469.25;1887735;76;21108;-57
2022/12/16 03:45:55;;;;;;;13.28;5.60;;;;;;;9.91;82.93;101469.75;1887705;75;21113;-57
2022/12/16 03:48:26;;;;;;;15.65;6.10;;;;;;;9.90;83.15;101465.83;1887768;76;21535;-57
2022/12/16 03:50:55;;;;;;;13.30;5.70;;;;;;;9.89;83.29;101464.98;1887621;76;21109;-58
2022/12/16 03:53:25;;;;;;;13.00;6.00;;;;;;;9.90;83.37;101464.06;1887714;76;21116;-58
2022/12/16 03:55:56;;;;;;;15.20;5.55;;;;;;;9.89;83.44;101462.34;1887806;76;21128;-57
2022/12/16 03:58:25;;;;;;;14.25;6.05;;;;;;;9.86;83.56;101475.56;1887718;76;21093;-57
2022/12/16 04:00:55;;;;;;;12.28;5.42;;;;;;;9.81;83.72;101473.06;1887694;76;21058;-59
2022/12/16 04:03:23;;;;;;;10.10;3.95;;;;;;;9.78;83.93;101481.47;1887748;76;21038;-57
2022/12/16 04:05:52;;;;;;;11.43;4.37;;;;;;;9.75;83.78;101481.53;1887730;76;21039;-57
2022/12/16 04:08:21;;;;;;;9.60;4.55;;;;;;;9.74;83.70;101483.31;1887878;76;21054;-56
2022/12/16 04:28:02;;;;;;;20.57;7.15;;;;;;;9.70;83.38;101493.92;1844924;78;21055;-56
2022/12/16 04:30:36;;;;;;;21.40;6.70;;;;;;;9.64;83.34;101499.73;1844804;78;21125;-57
